logo
App data

Assassin's Creed Freedom Cry

Play as Adewale, an ex-slave turned Assassin fighting for freedom with the help of his own Pirate crew.
Store | Hub | SteamDB | Site
Developer: Ubisoft Montreal Publisher: Ubisoft
Genre: Action, Adventure
Languages: English, French, Italian, German, Spanish - Spain, Czech, Danish, Dutch, Finnish, Norwegian, Polish, Portuguese, Portuguese - Brazil, Russian, Swedish
Tags: Action (180), Adventure (160), Assassin (125), Open World (113), Pirates (108), Stealth (92), Singleplayer (74), Parkour (65), Third Person (54), Historical (51), Story Rich (33), Atmospheric (28), RPG (21), Naval (12), Sailing (9), Sci-fi (7), Great Soundtrack (6), Masterpiece (6), Gore (6), Swordplay (6)
Category: Single-player
Release date: Feb 25, 2014
Price: $5.99 60%
Old userscore: 74% Owners: 100,000 .. 200,000
Followers: 20,284
Peak concurrent players yesterday: 14
YouTube stats: 1,135 views and 104 comments for top 50 videos uploaded last week, 2 new videos uploaded yesterday.
Playtime total: 05:34 (average) 07:34 (median)

Steam Spy is still in beta, so expect major bugs.

Owners data:

Access restricted.

This feature is only available to users with special access rights. Sorry.

If you want to proceed, you need to register or log in first and then back Steam Spy on Patreon. Look for Indie or Pro pledge.

Don't forget to use the same email as on Steam Spy!

Audience in 2 weeks:

Access restricted.

This feature is only available to users with special access rights. Sorry.

If you want to proceed, you need to register or log in first and then back Steam Spy on Patreon. Look for Indie or Pro pledge.

Don't forget to use the same email as on Steam Spy!

Peak daily concurrent players:

CCU data courtesy of SteamDB. Used with permission.

Hourly concurrent players:

Followers over time

Access restricted.

This feature is only available to users with special access rights. Sorry.

If you want to proceed, you need to register or log in first and then back Steam Spy on Patreon. Look for Indie or Pro pledge.

Don't forget to use the same email as on Steam Spy!

Views for top 50 videos on YouTube for this game:

Games similar to this one:

# Game Release date
Price
Score rank
(Userscore / Metascore)
Owners
Players
Playtime (Median)
1 Slain: Back from Hell Mar 24, 2016 $3.24N/A (N/A/74%)100,000 .. 200,0000%00:00 (00:00)
2 Medieval: Total War - Collection Aug 20, 2002 $2.49N/A (N/A)200,000 .. 500,0000%00:00 (00:00)
3 Letter Quest: Grimm's Journey Remastered Aug 5, 2015 $1.99N/A (N/A)20,000 .. 50,0000%00:00 (00:00)
4 Streets of Fury EX Jun 25, 2015 $9.99N/A (N/A)20,000 .. 50,0000%00:00 (00:00)
5 Tap Tap Infinity Jun 26, 2015 FreeN/A (N/A)200,000 .. 500,0000%00:00 (00:00)
6 Train Valley Sep 16, 2015 $1.49N/A (N/A/69%)200,000 .. 500,0000%00:00 (00:00)
7 Anima Gate of Memories Jun 2, 2016 $4.99N/A (N/A)20,000 .. 50,00020%00:40 (00:13)
8 The Deadly Tower of Monsters Jan 19, 2016 $2.99N/A (N/A/73%)50,000 .. 100,0000%00:00 (00:00)
9 Shadow Complex Remastered May 3, 2016 $14.99N/A (N/A)100,000 .. 200,0000%00:00 (00:00)
10 Cobalt Feb 2, 2016 $14.99N/A (N/A/69%)20,000 .. 50,0000%00:00 (00:00)
11 Zombie Kill of the Week - Reborn Mar 13, 2015 $1.04N/A (N/A)50,000 .. 100,0000%00:00 (00:00)
12 Uncanny Valley Apr 23, 2015 $0.99N/A (N/A/67%)100,000 .. 200,0000%00:00 (00:00)
13 Particula Feb 2, 2015 $0.49N/A (N/A)500,000 .. 1,000,0000%00:00 (00:00)
14 Assassin’s Creed Chronicles: Russia Feb 9, 2016 $3.39N/A (N/A)100,000 .. 200,0000%00:00 (00:00)
15 Sun Blast: Star Fighter Apr 2, 2015 $0.49N/A (N/A)100,000 .. 200,0000%00:00 (00:00)
16 The Long Journey Home May 30, 2017 $2.99N/A (N/A/68%)50,000 .. 100,0000%00:00 (00:00)
17 SHOGUN: Total War - Collection Jun 13, 2000 $2.49N/A (N/A)50,000 .. 100,0000%00:00 (00:00)
18 Serious Sam 2 Oct 11, 2005 $1.99N/A (N/A/74%)1,000,000 .. 2,000,0003.28%01:28 (00:39)
19 Majesty 2 Collection Apr 19, 2011 N/AN/A (N/A)200,000 .. 500,0000%00:00 (00:00)
20 Omerta - City of Gangsters Jan 31, 2013 $2.99N/A (N/A)200,000 .. 500,0000%00:00 (00:00)
21 DETOUR May 16, 2011 $1.99N/A (N/A)200,000 .. 500,0000%00:00 (00:00)
22 Blades of Time Apr 20, 2012 $9.99N/A (N/A/63%)200,000 .. 500,0000%00:00 (00:00)
23 Section 8: Prejudice May 4, 2011 $2.49N/A (N/A/77%)500,000 .. 1,000,0000%00:00 (00:00)
24 Viking: Battle for Asgard Oct 17, 2012 $14.99N/A (N/A)1,000,000 .. 2,000,0000%00:00 (00:00)
25 Frozen Synapse May 26, 2011 $17.49N/A (N/A/85%)500,000 .. 1,000,0000%00:00 (00:00)
26 Kung Fu Strike - The Warrior's Rise Jul 24, 2012 $9.99N/A (N/A)100,000 .. 200,0000%00:00 (00:00)
27 Renegade Ops Oct 26, 2011 $3.75N/A (N/A/76%)500,000 .. 1,000,0000%00:00 (00:00)
28 Aliens: Colonial Marines Collection $5.99N/A (N/A/45%)200,000 .. 500,0000%00:00 (00:00)
29 Memoir '44 Online Oct 12, 2011 FreeN/A (N/A)200,000 .. 500,0000%00:00 (00:00)
30 Red Faction: Armageddon Jun 6, 2011 $4.99N/A (N/A/75%)1,000,000 .. 2,000,0000%00:00 (00:00)
31 Sins of a Solar Empire: Trinity Nov 16, 2011 $4.99N/A (N/A/87%)100,000 .. 200,0000%00:00 (00:00)
32 The First Templar - Steam Special Edition May 12, 2011 $1.99N/A (N/A/57%)100,000 .. 200,0000%00:00 (00:00)
33 Warlock - Master of the Arcane May 8, 2012 $6.24N/A (N/A/71%)500,000 .. 1,000,0000%00:00 (00:00)
34 Jagged Alliance - Back in Action Feb 8, 2012 $4.99N/A (N/A/62%)200,000 .. 500,0000%00:00 (00:00)
35 TY the Tasmanian Tiger Dec 12, 2016 $9.89N/A (N/A)50,000 .. 100,0000%00:00 (00:00)
36 Epistory - Typing Chronicles Mar 30, 2016 $5.24N/A (N/A/74%)200,000 .. 500,0000%00:00 (00:00)
37 Pang Adventures Apr 18, 2016 $3.99N/A (N/A)20,000 .. 50,0000%00:00 (00:00)
38 Concrete Jungle Sep 23, 2015 $6.99N/A (N/A/76%)100,000 .. 200,0000%00:00 (00:00)
39 Age of Steel: Recharge Jan 6, 2016 $6.99N/A (N/A)100,000 .. 200,0000%00:00 (00:00)
40 Normality Jun 30, 1996 $0.59N/A (N/A)200,000 .. 500,0000%00:00 (00:00)
41 Deadlight: Director's Cut Jun 21, 2016 $2.39N/A (N/A)100,000 .. 200,0000%00:00 (00:00)
42 POSTAL Redux May 20, 2016 $1.43N/A (N/A/54%)50,000 .. 100,0000%00:00 (00:00)
43 Seraph Sep 20, 2016 $1.29N/A (N/A/80%)50,000 .. 100,0000%00:00 (00:00)
44 Turok 2: Seeds of Evil Dec 10, 1998 $6.99N/A (N/A)50,000 .. 100,0000%00:00 (00:00)
45 Alien Attack Jun 21, 2016 $0.59N/A (N/A)20,000 .. 50,0000%00:00 (00:00)
46 Hard Reset Redux Jun 3, 2016 $1.99N/A (N/A/73%)100,000 .. 200,0000%00:00 (00:00)
47 Call of Duty: Modern Warfare Remastered Jul 27, 2017 $29.99N/A (N/A)100,000 .. 200,0000%00:00 (00:00)
48 12 is Better Than 6 Nov 20, 2015 $2.49N/A (N/A/74%)500,000 .. 1,000,0000%00:00 (00:00)
49 Battlevoid: Harbinger Feb 24, 2016 $4.99N/A (N/A)100,000 .. 200,0000%00:00 (00:00)
50 DRAGON QUEST HEROES Slime Edition Dec 3, 2015 $19.99N/A (N/A)50,000 .. 100,0000%00:00 (00:00)
51 War of Beach Oct 15, 2015 FreeN/A (N/A)100,000 .. 200,0000%00:00 (00:00)
52 God Mode Apr 19, 2013 N/AN/A (N/A/58%)200,000 .. 500,0000%00:00 (00:00)
53 Unity of Command: Stalingrad Campaign Oct 17, 2012 $3.39N/A (N/A/84%)100,000 .. 200,0000%00:00 (00:00)
54 Fallen Enchantress: Legendary Heroes May 22, 2013 $8.24N/A (N/A/80%)200,000 .. 500,0000%00:00 (00:00)
55 StarDrive Apr 26, 2013 $5.39N/A (N/A/61%)100,000 .. 200,0000%00:00 (00:00)
56 War for the Overworld Apr 2, 2015 $7.49N/A (N/A)100,000 .. 200,0000%00:00 (00:00)
57 Xenonauts Jun 16, 2014 $6.24N/A (N/A/77%)200,000 .. 500,0000%00:00 (00:00)
58 Eador. Masters of the Broken World Apr 19, 2013 $2.99N/A (N/A/74%)500,000 .. 1,000,0000%00:00 (00:00)
59 Tomb Raider II Nov 28, 2012 $0.97N/A (N/A)500,000 .. 1,000,0000%00:00 (00:00)
60 Blitzkrieg 3 Jun 2, 2017 $2.99N/A (N/A/68%)50,000 .. 100,0000%00:00 (00:00)
61 Tomb Raider III Nov 28, 2012 $0.97N/A (N/A)500,000 .. 1,000,0000%00:00 (00:00)
62 Inversion Jul 26, 2012 $2.49N/A (N/A)20,000 .. 50,0000%00:00 (00:00)
63 Ironclad Tactics Sep 18, 2013 $3.74N/A (N/A/69%)50,000 .. 100,0000%00:00 (00:00)
64 Tom Clancy's Ghost Recon: Future Soldier Jun 26, 2012 $6.79N/A (N/A/71%)200,000 .. 500,0000%00:00 (00:00)
65 Hegemony Rome: The Rise of Caesar May 15, 2014 $7.49N/A (N/A)50,000 .. 100,0000%00:00 (00:00)
66 Air Conflicts: Pacific Carriers Sep 21, 2012 $1.99N/A (N/A)50,000 .. 100,0000%00:00 (00:00)
67 Kingdom Wars Apr 1, 2013 N/AN/A (N/A)500,000 .. 1,000,0000%00:00 (00:00)
68 Tiny Troopers Aug 24, 2012 $0.89N/A (N/A/57%)100,000 .. 200,0000%00:00 (00:00)
69 Dead6hot Feb 1, 2016 $0.49N/A (N/A)200,000 .. 500,0000%00:00 (00:00)
70 STANDBY Jan 6, 2017 $0.89N/A (N/A)20,000 .. 50,0000%00:00 (00:00)
71 One Troll Army May 20, 2016 FreeN/A (N/A)200,000 .. 500,0000%00:00 (00:00)
72 Caesar 3 May 30, 1999 $3.89N/A (N/A)200,000 .. 500,0000%00:00 (00:00)
73 Survival Zombies The Inverted Evolution May 8, 2017 $0.49N/A (N/A)50,000 .. 100,0000%00:00 (00:00)
74 Asura: Vengeance Edition Apr 13, 2017 $4.99N/A (N/A)20,000 .. 50,0000%00:00 (00:00)
75 IS Defense Apr 19, 2016 $1.19N/A (N/A/50%)20,000 .. 50,0000%00:00 (00:00)
76 Mages of Mystralia May 18, 2017 $19.99N/A (N/A/74%)100,000 .. 200,0000%00:00 (00:00)
77 Spell Fighter VR Mar 1, 2016 FreeN/A (N/A)100,000 .. 200,0000%00:00 (00:00)
78 Wonder Boy: The Dragon's Trap Jun 8, 2017 $7.99N/A (N/A)50,000 .. 100,0000%00:00 (00:00)
79 Zombillie Apr 29, 2016 $0.49N/A (N/A)50,000 .. 100,0000%00:00 (00:00)
80 DEAD RISING Sep 12, 2016 $5.99N/A (N/A)200,000 .. 500,0000%00:00 (00:00)
81 Song of the Deep Jul 12, 2016 $3.74N/A (N/A/71%)50,000 .. 100,0000%00:00 (00:00)
82 Hitman GO: Definitive Edition Feb 23, 2016 $1.59N/A (N/A/72%)100,000 .. 200,0000%00:00 (00:00)
83 Vanquish May 25, 2017 $4.99N/A (N/A/78%)200,000 .. 500,0000%00:00 (00:00)
84 Mushroom Wars Apr 7, 2016 $9.99N/A (N/A/80%)50,000 .. 100,0000%00:00 (00:00)
85 Roll'd Apr 14, 2016 $0.49N/A (N/A)20,000 .. 50,0000%00:00 (00:00)
86 Savant - Ascent Dec 4, 2013 $0.99N/A (N/A)200,000 .. 500,0000%00:00 (00:00)
87 Megabyte Punch Oct 15, 2013 $7.49N/A (N/A/69%)200,000 .. 500,0000%00:00 (00:00)
88 The Last Tinker: City of Colors May 12, 2014 $0.99N/A (N/A/72%)100,000 .. 200,0000%00:00 (00:00)
89 Scribblenauts Unmasked: A DC Comics Adventure Sep 24, 2013 $4.99N/A (N/A/68%)200,000 .. 500,0000%00:00 (00:00)
90 Assassin’s Creed Liberation HD Jan 15, 2014 $9.99N/A (N/A)100,000 .. 200,0000%00:00 (00:00)
91 Anomaly Korea Nov 6, 2013 $0.99N/A (N/A)200,000 .. 500,0000%00:00 (00:00)
92 The Red Solstice Jul 9, 2015 $2.99N/A (N/A/74%)1,000,000 .. 2,000,0000%00:00 (00:00)
93 Kingdom Wars 2: Battles Mar 4, 2016 N/AN/A (N/A)50,000 .. 100,0000%00:00 (00:00)
94 Breach & Clear Mar 21, 2014 $1.49N/A (N/A)200,000 .. 500,0000%00:00 (00:00)
95 WARMACHINE: Tactics Nov 20, 2014 $19.99N/A (N/A)100,000 .. 200,0000%00:00 (00:00)
96 Dust: An Elysian Tail May 24, 2013 $3.74N/A (N/A)1,000,000 .. 2,000,0002.44%01:22 (00:27)
97 Duskers May 18, 2016 $9.99N/A (N/A/83%)50,000 .. 100,0004.55%02:05 (00:41)
98 Sid Meier’s Ace Patrol: Pacific Skies Nov 5, 2013 $1.24N/A (N/A)500,000 .. 1,000,0000%00:00 (00:00)
99 Rebuild 3: Gangs of Deadsville May 29, 2015 $5.99N/A (N/A/75%)200,000 .. 500,0000%00:00 (00:00)
100 MASSIVE CHALICE Jun 1, 2015 $9.99N/A (N/A/73%)100,000 .. 200,0000%00:00 (00:00)
101 Blood Knights Nov 13, 2013 $1.99N/A (N/A)50,000 .. 100,0000%00:00 (00:00)
102 Legends of Eisenwald Jul 2, 2015 $4.99N/A (N/A/71%)100,000 .. 200,0000%00:00 (00:00)
103 Pharaoh + Cleopatra Oct 31, 1999 $4.99N/A (N/A)200,000 .. 500,0000%00:00 (00:00)
104 Sudden Strike Gold Jan 24, 2001 $1.49N/A (N/A)50,000 .. 100,0000%00:00 (00:00)
105 Dies irae ~Amantes amentes~ Jun 2, 2017 FreeN/A (N/A)50,000 .. 100,0000%00:00 (00:00)
106 Dead Rising 4 Mar 14, 2017 $7.49N/A (N/A/74%)200,000 .. 500,0000%00:00 (00:00)
107 Serious Sam VR: The First Encounter Mar 30, 2017 $5.99N/A (N/A)50,000 .. 100,0000%00:00 (00:00)
108 Serious Sam Fusion 2017 (beta) tba - Add to your Wishlist! $2.24N/A (N/A)0 .. 20,0000%00:00 (00:00)
109 Total Annihilation Sep 30, 1997 $1.99N/A (N/A/86%)100,000 .. 200,0000%00:00 (00:00)
110 Castlevania: Lords of Shadow – Mirror of Fate HD Mar 27, 2014 $3.74N/A (N/A)100,000 .. 200,0000%00:00 (00:00)
111 Commando Jack Aug 22, 2014 $7.99N/A (N/A)200,000 .. 500,0000%00:00 (00:00)
112 House of the Dying Sun Nov 1, 2016 $6.79N/A (N/A/76%)100,000 .. 200,0000%00:00 (00:00)
113 Battle Islands Aug 6, 2014 FreeN/A (N/A)500,000 .. 1,000,0000%00:00 (00:00)
114 Incoming Forces Sep 24, 2002 $0.59N/A (N/A/67%)100,000 .. 200,0000%00:00 (00:00)
115 Geometry Wars 3: Dimensions Evolved Nov 25, 2014 $7.49N/A (N/A)100,000 .. 200,0000%00:00 (00:00)
116 Braveland Mar 17, 2014 $1.74N/A (N/A)5,000,000 .. 10,000,0001.19%02:31 (01:40)
117 Oddworld: New 'n' Tasty Feb 25, 2015 $19.99N/A (N/A/87%)200,000 .. 500,0000%00:00 (00:00)
118 Pandora: First Contact Nov 14, 2013 $7.49N/A (N/A/68%)50,000 .. 100,0000%00:00 (00:00)
119 Batman: Arkham Origins Blackgate - Deluxe Edition Apr 1, 2014 $4.99N/A (N/A)200,000 .. 500,0000%00:00 (00:00)
120 Faces of War Sep 8, 2006 $0.99N/A (N/A/67%)20,000 .. 50,0000%00:00 (00:00)
121 Warhammer 40,000: Kill Team May 22, 2014 $2.49N/A (N/A)200,000 .. 500,0000%00:00 (00:00)
122 Grey Goo Jan 23, 2015 $7.49N/A (N/A/77%)200,000 .. 500,0000%00:00 (00:00)
123 Imperial Glory May 15, 2005 $1.74N/A (N/A/69%)100,000 .. 200,0000%00:00 (00:00)
124 MIND: Path to Thalamus Enhanced Edition Nov 3, 2015 $1.19N/A (N/A/75%)100,000 .. 200,0000%00:00 (00:00)
125 Creeper World 3: Arc Eternal Mar 27, 2014 $4.94N/A (N/A)200,000 .. 500,00010%16:16 (05:25)
126 The Longest Journey Nov 17, 2000 $3.99N/A (N/A/91%)200,000 .. 500,0000%00:00 (00:00)
127 Red Faction Sep 18, 2001 $2.49N/A (N/A/78%)200,000 .. 500,0000%00:00 (00:00)
128 Just Cause Sep 22, 2006 $0.97N/A (N/A/75%)1,000,000 .. 2,000,0000%00:00 (00:00)
129 Hunted: The Demon’s Forge May 30, 2011 $1.49N/A (N/A/61%)100,000 .. 200,0000%00:00 (00:00)
130 X-Blades Feb 10, 2009 $2.99N/A (N/A/54%)500,000 .. 1,000,0000.79%02:31 (00:50)
131 Knights of Honor May 10, 2005 $2.49N/A (N/A/77%)100,000 .. 200,0000%00:00 (00:00)
132 Railroad Tycoon 3 Oct 23, 2003 $2.49N/A (N/A/80%)200,000 .. 500,0000%00:00 (00:00)
133 Operation Flashpoint: Red River N/AN/A (N/A/67%)0 .. 20,0000%00:00 (00:00)
134 Penguins Arena: Sedna's World Dec 18, 2008 $1.19N/A (N/A)100,000 .. 200,0000%00:00 (00:00)
135 Command & Conquer 4: Tiberian Twilight Mar 16, 2010 $9.99N/A (N/A/64%)200,000 .. 500,0000%00:00 (00:00)
136 Tom Clancy's Rainbow Six Vegas Dec 12, 2006 $3.39N/A (N/A/85%)100,000 .. 200,0000%00:00 (00:00)
137 Red Orchestra: Ostfront 41-45 Mar 14, 2006 $2.49N/A (N/A/81%)500,000 .. 1,000,0000%00:00 (00:00)
138 Brothers in Arms: Hell's Highway Oct 8, 2008 $2.49N/A (N/A/79%)100,000 .. 200,0000%00:00 (00:00)
139 Disciples II: Rise of the Elves Jul 6, 2006 $1.39N/A (N/A/80%)50,000 .. 100,0000%00:00 (00:00)
140 Oddworld: Munch's Oddysee Dec 20, 2010 $4.99N/A (N/A)200,000 .. 500,0000%00:00 (00:00)
141 Cossacks: Back to War Nov 1, 2002 $1.24N/A (N/A/60%)200,000 .. 500,0000%00:00 (00:00)
142 Oddworld: Stranger's Wrath HD Dec 20, 2010 $9.99N/A (N/A)200,000 .. 500,0000%00:00 (00:00)
143 Shadow Warrior 2 Oct 13, 2016 $9.99N/A (N/A/78%)500,000 .. 1,000,0004.26%05:42 (03:48)
144 Convoy Apr 21, 2015 $3.74N/A (N/A/72%)100,000 .. 200,0000%00:00 (00:00)
145 WASTED Jun 7, 2016 $1.29N/A (N/A/68%)100,000 .. 200,0000%00:00 (00:00)
146 Odallus: The Dark Call Jul 15, 2015 $9.99N/A (N/A/80%)100,000 .. 200,0000%00:00 (00:00)
147 Out There: Ω Edition Apr 2, 2015 $3.74N/A (N/A)100,000 .. 200,0000%00:00 (00:00)
148 Ascension: Deckbuilding Game Dec 16, 2014 $3.99N/A (N/A)20,000 .. 50,0000%00:00 (00:00)
149 Zombie Vikings Dec 7, 2015 $2.99N/A (N/A/74%)50,000 .. 100,0000%00:00 (00:00)
150 UNLOVED Sep 29, 2016 $1.24N/A (N/A)50,000 .. 100,0000%00:00 (00:00)
151 Oceanhorn: Monster of Uncharted Seas Mar 17, 2015 $5.99N/A (N/A/74%)100,000 .. 200,0000%00:00 (00:00)
152 The Magic Circle Jul 9, 2015 $4.99N/A (N/A/79%)100,000 .. 200,0000%00:00 (00:00)
153 Battle of Empires : 1914-1918 Jul 22, 2015 $2.24N/A (N/A)50,000 .. 100,0000%00:00 (00:00)
154 Halo: Spartan Strike Dec 12, 2014 $1.19N/A (N/A)100,000 .. 200,0000%00:00 (00:00)
155 The Original Strife: Veteran Edition May 31, 1996 $2.49N/A (N/A)100,000 .. 200,0000%00:00 (00:00)
156 Impossible Creatures Steam Edition Jan 7, 2003 $2.49N/A (N/A/72%)100,000 .. 200,0000%00:00 (00:00)
157 Space Hulk: Ascension Nov 12, 2014 N/AN/A (N/A/72%)100,000 .. 200,0000%00:00 (00:00)
158 The Warlock of Firetop Mountain Aug 30, 2016 $5.99N/A (N/A/70%)50,000 .. 100,0000%00:00 (00:00)
159 Act of Aggression - Reboot Edition Sep 2, 2015 $5.99N/A (N/A/71%)100,000 .. 200,00016.67%02:18 (00:46)

Tags over time:

Access restricted.

This feature is only available to users with special access rights. Sorry.

If you want to proceed, you need to register or log in first and then back Steam Spy on Patreon. Look for Indie or Pro pledge.

Don't forget to use the same email as on Steam Spy!

Owners of this game also own:

Access restricted.

This feature is only available to users with special access rights. Sorry.

If you want to proceed, you need to register or log in first and then back Steam Spy on Patreon. Look for Indie or Pro pledge.

Don't forget to use the same email as on Steam Spy!

Playtime distribution:

Access restricted.

This feature is only available to users with special access rights. Sorry.

If you want to proceed, you need to register or log in first and then back Steam Spy on Patreon. Look for Indie or Pro pledge.

Don't forget to use the same email as on Steam Spy!

Playtime (2 weeks):

Access restricted.

This feature is only available to users with special access rights. Sorry.

If you want to proceed, you need to register or log in first and then back Steam Spy on Patreon. Look for Indie or Pro pledge.

Don't forget to use the same email as on Steam Spy!

User reviews:

Login required.

Please register or log in to see this information.